EPPO/POZ METAR and TAF weather

Enter ICAO airport designator
Station Type Date Time Source
EPPO METAR 2019/10/23 14:00 UTC NOAA

EPPO 231400Z 10007KT CAVOK 17/12 Q1019


Station Type Date Time Source
EPPO Decoded METAR 2019/10/23 14:00 UTC NOAA

Poznan, Poland (EPPO) 52-25N 016-50E 92M
Oct 23, 2019 - 10:00 AM EDT / 2019.10.23 1400 UTC
Wind: from the E (100 degrees) at 8 MPH (7 KT):0
Visibility: greater than 7 mile(s):0
Temperature: 62 F (17 C)
Dew Point: 53 F (12 C)
Relative Humidity: 72%
Pressure (altimeter): 30.09 in. Hg (1019 hPa)
ob: EPPO 231400Z 10007KT CAVOK 17/12 Q1019
cycle: 14

Station Type Date Time Source
EPPO TAF 2019/10/23 12:33 UTC NOAA

TAF EPPO 231130Z 2312/2412 VRB02KT 9999 SCT030
BECMG 2312/2314 12010KT
BECMG 2317/2320 3000 BR BKN007
TEMPO 2321/2406 0200 FG BKN001
BECMG 2407/2410 9999 NSW SCT030

Example: see airport list